sensor_id;sensor_type;location;lat;lon;timestamp;P1;durP1;ratioP1;P2;durP2;ratioP2
71202;SDS011;58929;47.490;19.090;2023-08-06T00:00:27;6.20;;;4.80;;
71202;SDS011;58929;47.490;19.090;2023-08-06T00:02:56;8.55;;;5.00;;
71202;SDS011;58929;47.490;19.090;2023-08-06T00:05:24;8.18;;;5.07;;
71202;SDS011;58929;47.490;19.090;2023-08-06T00:07:53;6.97;;;5.15;;
71202;SDS011;58929;47.490;19.090;2023-08-06T00:10:21;8.13;;;5.57;;
71202;SDS011;58929;47.490;19.090;2023-08-06T00:12:49;10.43;;;5.50;;
71202;SDS011;58929;47.490;19.090;2023-08-06T00:15:17;13.05;;;7.35;;
71202;SDS011;58929;47.490;19.090;2023-08-06T00:17:46;10.05;;;6.32;;
71202;SDS011;58929;47.490;19.090;2023-08-06T00:20:16;10.35;;;6.93;;
71202;SDS011;58929;47.490;19.090;2023-08-06T00:22:44;11.18;;;6.25;;
71202;SDS011;58929;47.490;19.090;2023-08-06T00:25:12;10.43;;;7.18;;
71202;SDS011;58929;47.490;19.090;2023-08-06T00:27:40;12.10;;;7.20;;
71202;SDS011;58929;47.490;19.090;2023-08-06T00:30:08;9.45;;;6.25;;
71202;SDS011;58929;47.490;19.090;2023-08-06T00:32:36;9.30;;;5.43;;
71202;SDS011;58929;47.490;19.090;2023-08-06T00:35:05;7.85;;;5.63;;
71202;SDS011;58929;47.490;19.090;2023-08-06T00:37:34;8.43;;;5.72;;
71202;SDS011;58929;47.490;19.090;2023-08-06T00:40:03;9.07;;;4.93;;
71202;SDS011;58929;47.490;19.090;2023-08-06T00:42:31;7.03;;;5.10;;
71202;SDS011;58929;47.490;19.090;2023-08-06T00:44:59;8.10;;;5.35;;
71202;SDS011;58929;47.490;19.090;2023-08-06T00:47:27;12.13;;;5.60;;
71202;SDS011;58929;47.490;19.090;2023-08-06T00:49:55;9.63;;;5.18;;
71202;SDS011;58929;47.490;19.090;2023-08-06T00:52:23;12.20;;;5.47;;
71202;SDS011;58929;47.490;19.090;2023-08-06T00:54:52;10.27;;;5.80;;
71202;SDS011;58929;47.490;19.090;2023-08-06T00:57:23;9.07;;;5.53;;
71202;SDS011;58929;47.490;19.090;2023-08-06T00:59:52;13.82;;;5.22;;
71202;SDS011;58929;47.490;19.090;2023-08-06T01:02:21;9.85;;;5.68;;
71202;SDS011;58929;47.490;19.090;2023-08-06T01:04:49;11.88;;;5.75;;
71202;SDS011;58929;47.490;19.090;2023-08-06T01:07:20;8.05;;;5.25;;
71202;SDS011;58929;47.490;19.090;2023-08-06T01:09:53;8.43;;;5.40;;
71202;SDS011;58929;47.490;19.090;2023-08-06T01:12:29;7.70;;;5.28;;
71202;SDS011;58929;47.490;19.090;2023-08-06T01:15:00;11.68;;;6.35;;
71202;SDS011;58929;47.490;19.090;2023-08-06T01:17:29;9.20;;;6.00;;
71202;SDS011;58929;47.490;19.090;2023-08-06T01:19:57;9.18;;;5.88;;
71202;SDS011;58929;47.490;19.090;2023-08-06T01:22:26;9.65;;;5.72;;
71202;SDS011;58929;47.490;19.090;2023-08-06T01:24:55;11.88;;;5.88;;
71202;SDS011;58929;47.490;19.090;2023-08-06T01:27:24;12.88;;;5.60;;
71202;SDS011;58929;47.490;19.090;2023-08-06T01:29:57;10.38;;;6.22;;
71202;SDS011;58929;47.490;19.090;2023-08-06T01:32:28;13.13;;;6.22;;
71202;SDS011;58929;47.490;19.090;2023-08-06T01:34:57;9.15;;;5.50;;
71202;SDS011;58929;47.490;19.090;2023-08-06T01:37:32;8.82;;;5.90;;
71202;SDS011;58929;47.490;19.090;2023-08-06T01:40:05;9.30;;;5.93;;
71202;SDS011;58929;47.490;19.090;2023-08-06T01:42:33;10.25;;;5.60;;
71202;SDS011;58929;47.490;19.090;2023-08-06T01:45:01;10.52;;;5.95;;
71202;SDS011;58929;47.490;19.090;2023-08-06T01:47:29;7.85;;;5.82;;
71202;SDS011;58929;47.490;19.090;2023-08-06T01:49:57;7.57;;;5.45;;
71202;SDS011;58929;47.490;19.090;2023-08-06T01:52:25;9.18;;;5.95;;
71202;SDS011;58929;47.490;19.090;2023-08-06T01:54:54;8.25;;;5.68;;
71202;SDS011;58929;47.490;19.090;2023-08-06T01:57:22;8.20;;;5.50;;
71202;SDS011;58929;47.490;19.090;2023-08-06T01:59:50;10.73;;;5.40;;
71202;SDS011;58929;47.490;19.090;2023-08-06T02:02:18;9.00;;;6.13;;
71202;SDS011;58929;47.490;19.090;2023-08-06T02:04:46;9.95;;;5.82;;
71202;SDS011;58929;47.490;19.090;2023-08-06T02:07:14;10.38;;;6.60;;
71202;SDS011;58929;47.490;19.090;2023-08-06T02:09:42;8.15;;;5.45;;
71202;SDS011;58929;47.490;19.090;2023-08-06T02:12:12;6.63;;;4.82;;
71202;SDS011;58929;47.490;19.090;2023-08-06T02:14:40;7.45;;;4.85;;
71202;SDS011;58929;47.490;19.090;2023-08-06T02:17:08;8.27;;;5.32;;
71202;SDS011;58929;47.490;19.090;2023-08-06T02:19:35;7.63;;;4.82;;
71202;SDS011;58929;47.490;19.090;2023-08-06T02:22:04;8.15;;;4.30;;
71202;SDS011;58929;47.490;19.090;2023-08-06T02:24:32;7.28;;;4.35;;
71202;SDS011;58929;47.490;19.090;2023-08-06T02:26:59;7.28;;;4.53;;
71202;SDS011;58929;47.490;19.090;2023-08-06T02:29:29;5.88;;;4.22;;
71202;SDS011;58929;47.490;19.090;2023-08-06T02:31:57;7.93;;;4.10;;
71202;SDS011;58929;47.490;19.090;2023-08-06T02:34:27;6.22;;;3.55;;
71202;SDS011;58929;47.490;19.090;2023-08-06T02:36:55;5.88;;;4.32;;
71202;SDS011;58929;47.490;19.090;2023-08-06T02:39:23;5.53;;;3.90;;
71202;SDS011;58929;47.490;19.090;2023-08-06T02:41:52;5.80;;;3.72;;
71202;SDS011;58929;47.490;19.090;2023-08-06T02:44:20;4.47;;;3.47;;
71202;SDS011;58929;47.490;19.090;2023-08-06T02:46:50;5.72;;;3.72;;
71202;SDS011;58929;47.490;19.090;2023-08-06T02:49:18;4.70;;;3.58;;
71202;SDS011;58929;47.490;19.090;2023-08-06T02:51:47;7.28;;;3.90;;
71202;SDS011;58929;47.490;19.090;2023-08-06T02:54:15;5.35;;;3.75;;
71202;SDS011;58929;47.490;19.090;2023-08-06T02:56:44;5.53;;;3.67;;
71202;SDS011;58929;47.490;19.090;2023-08-06T02:59:19;6.40;;;4.10;;
71202;SDS011;58929;47.490;19.090;2023-08-06T03:02:08;7.38;;;4.60;;
71202;SDS011;58929;47.490;19.090;2023-08-06T03:04:56;7.32;;;4.13;;
71202;SDS011;58929;47.490;19.090;2023-08-06T03:07:28;10.32;;;4.40;;
71202;SDS011;58929;47.490;19.090;2023-08-06T03:10:03;4.53;;;3.65;;
71202;SDS011;58929;47.490;19.090;2023-08-06T03:12:32;4.53;;;3.83;;
71202;SDS011;58929;47.490;19.090;2023-08-06T03:15:02;5.47;;;3.83;;
71202;SDS011;58929;47.490;19.090;2023-08-06T03:17:33;6.43;;;4.20;;
71202;SDS011;58929;47.490;19.090;2023-08-06T03:20:03;9.40;;;4.13;;
71202;SDS011;58929;47.490;19.090;2023-08-06T03:22:32;6.82;;;3.58;;
71202;SDS011;58929;47.490;19.090;2023-08-06T03:25:00;7.90;;;4.13;;
71202;SDS011;58929;47.490;19.090;2023-08-06T03:27:28;4.18;;;3.67;;
71202;SDS011;58929;47.490;19.090;2023-08-06T03:29:57;5.20;;;3.47;;
71202;SDS011;58929;47.490;19.090;2023-08-06T03:32:27;8.82;;;3.35;;
71202;SDS011;58929;47.490;19.090;2023-08-06T03:34:58;8.35;;;4.05;;
71202;SDS011;58929;47.490;19.090;2023-08-06T03:37:28;4.50;;;3.20;;
71202;SDS011;58929;47.490;19.090;2023-08-06T03:39:58;6.43;;;3.72;;
71202;SDS011;58929;47.490;19.090;2023-08-06T03:42:27;7.47;;;3.05;;
71202;SDS011;58929;47.490;19.090;2023-08-06T03:44:55;8.27;;;3.60;;
71202;SDS011;58929;47.490;19.090;2023-08-06T03:47:24;5.07;;;3.13;;
71202;SDS011;58929;47.490;19.090;2023-08-06T03:49:52;5.88;;;3.28;;
71202;SDS011;58929;47.490;19.090;2023-08-06T03:52:23;6.43;;;3.28;;
71202;SDS011;58929;47.490;19.090;2023-08-06T03:54:51;4.22;;;2.85;;
71202;SDS011;58929;47.490;19.090;2023-08-06T03:57:19;6.63;;;3.65;;
71202;SDS011;58929;47.490;19.090;2023-08-06T03:59:47;6.13;;;3.63;;
71202;SDS011;58929;47.490;19.090;2023-08-06T04:02:23;6.05;;;3.97;;
71202;SDS011;58929;47.490;19.090;2023-08-06T04:04:51;5.50;;;4.15;;
71202;SDS011;58929;47.490;19.090;2023-08-06T04:07:20;8.13;;;4.38;;
71202;SDS011;58929;47.490;19.090;2023-08-06T04:09:56;5.88;;;3.60;;
71202;SDS011;58929;47.490;19.090;2023-08-06T04:12:25;8.23;;;4.05;;
71202;SDS011;58929;47.490;19.090;2023-08-06T04:14:53;8.73;;;4.30;;
71202;SDS011;58929;47.490;19.090;2023-08-06T04:17:21;6.03;;;3.65;;
71202;SDS011;58929;47.490;19.090;2023-08-06T04:19:50;6.72;;;4.03;;
71202;SDS011;58929;47.490;19.090;2023-08-06T04:22:19;6.13;;;3.70;;
71202;SDS011;58929;47.490;19.090;2023-08-06T04:24:47;8.50;;;4.05;;
71202;SDS011;58929;47.490;19.090;2023-08-06T04:27:17;6.30;;;3.97;;
71202;SDS011;58929;47.490;19.090;2023-08-06T04:29:48;7.03;;;3.72;;
71202;SDS011;58929;47.490;19.090;2023-08-06T04:32:16;10.02;;;4.40;;
71202;SDS011;58929;47.490;19.090;2023-08-06T04:34:50;8.15;;;4.80;;
71202;SDS011;58929;47.490;19.090;2023-08-06T04:37:18;6.80;;;4.25;;
71202;SDS011;58929;47.490;19.090;2023-08-06T04:39:49;9.65;;;5.25;;
71202;SDS011;58929;47.490;19.090;2023-08-06T04:42:19;6.38;;;3.90;;
71202;SDS011;58929;47.490;19.090;2023-08-06T04:44:47;6.10;;;3.92;;
71202;SDS011;58929;47.490;19.090;2023-08-06T04:47:15;8.70;;;4.00;;
71202;SDS011;58929;47.490;19.090;2023-08-06T04:49:44;5.85;;;3.70;;
71202;SDS011;58929;47.490;19.090;2023-08-06T04:52:12;5.63;;;2.80;;
71202;SDS011;58929;47.490;19.090;2023-08-06T04:54:40;2.60;;;2.20;;
71202;SDS011;58929;47.490;19.090;2023-08-06T04:57:08;2.75;;;2.22;;
71202;SDS011;58929;47.490;19.090;2023-08-06T04:59:38;2.80;;;1.95;;
71202;SDS011;58929;47.490;19.090;2023-08-06T05:02:07;2.30;;;1.17;;
71202;SDS011;58929;47.490;19.090;2023-08-06T05:04:35;1.33;;;1.05;;
71202;SDS011;58929;47.490;19.090;2023-08-06T05:07:04;2.08;;;1.00;;
71202;SDS011;58929;47.490;19.090;2023-08-06T05:09:32;1.67;;;1.00;;
71202;SDS011;58929;47.490;19.090;2023-08-06T05:12:00;0.98;;;0.63;;
71202;SDS011;58929;47.490;19.090;2023-08-06T05:14:29;0.80;;;0.47;;
71202;SDS011;58929;47.490;19.090;2023-08-06T05:16:58;0.50;;;0.50;;
71202;SDS011;58929;47.490;19.090;2023-08-06T05:19:26;0.68;;;0.52;;
71202;SDS011;58929;47.490;19.090;2023-08-06T05:21:54;0.40;;;0.40;;
71202;SDS011;58929;47.490;19.090;2023-08-06T05:24:22;0.50;;;0.38;;
71202;SDS011;58929;47.490;19.090;2023-08-06T05:26:49;0.40;;;0.40;;
71202;SDS011;58929;47.490;19.090;2023-08-06T05:29:17;0.95;;;0.75;;
71202;SDS011;58929;47.490;19.090;2023-08-06T05:31:44;1.83;;;0.50;;
71202;SDS011;58929;47.490;19.090;2023-08-06T05:34:14;1.90;;;0.60;;
71202;SDS011;58929;47.490;19.090;2023-08-06T05:36:42;2.05;;;0.40;;
71202;SDS011;58929;47.490;19.090;2023-08-06T05:39:10;0.47;;;0.30;;
71202;SDS011;58929;47.490;19.090;2023-08-06T05:41:38;1.80;;;0.30;;
71202;SDS011;58929;47.490;19.090;2023-08-06T05:44:06;0.40;;;0.30;;
71202;SDS011;58929;47.490;19.090;2023-08-06T05:46:34;1.85;;;0.50;;
71202;SDS011;58929;47.490;19.090;2023-08-06T05:49:02;0.93;;;0.50;;
71202;SDS011;58929;47.490;19.090;2023-08-06T05:51:33;1.00;;;0.38;;
71202;SDS011;58929;47.490;19.090;2023-08-06T05:54:00;0.20;;;0.20;;
71202;SDS011;58929;47.490;19.090;2023-08-06T05:56:28;0.22;;;0.22;;
71202;SDS011;58929;47.490;19.090;2023-08-06T05:58:56;0.32;;;0.20;;
71202;SDS011;58929;47.490;19.090;2023-08-06T06:01:24;0.20;;;0.20;;
71202;SDS011;58929;47.490;19.090;2023-08-06T06:03:52;0.30;;;0.30;;
71202;SDS011;58929;47.490;19.090;2023-08-06T06:06:20;0.20;;;0.20;;
71202;SDS011;58929;47.490;19.090;2023-08-06T06:08:49;0.85;;;0.28;;
71202;SDS011;58929;47.490;19.090;2023-08-06T06:11:17;0.20;;;0.20;;
71202;SDS011;58929;47.490;19.090;2023-08-06T06:13:49;0.47;;;0.32;;
71202;SDS011;58929;47.490;19.090;2023-08-06T06:16:17;0.28;;;0.20;;
71202;SDS011;58929;47.490;19.090;2023-08-06T06:18:45;0.85;;;0.20;;
71202;SDS011;58929;47.490;19.090;2023-08-06T06:21:12;0.43;;;0.20;;
71202;SDS011;58929;47.490;19.090;2023-08-06T06:23:40;0.70;;;0.47;;
71202;SDS011;58929;47.490;19.090;2023-08-06T06:26:10;1.40;;;0.65;;
71202;SDS011;58929;47.490;19.090;2023-08-06T06:28:38;0.10;;;0.10;;
71202;SDS011;58929;47.490;19.090;2023-08-06T06:31:06;0.30;;;0.20;;
71202;SDS011;58929;47.490;19.090;2023-08-06T06:33:35;0.70;;;0.20;;
71202;SDS011;58929;47.490;19.090;2023-08-06T06:36:03;1.95;;;0.25;;
71202;SDS011;58929;47.490;19.090;2023-08-06T06:38:31;0.20;;;0.15;;
71202;SDS011;58929;47.490;19.090;2023-08-06T06:40:59;0.40;;;0.30;;
71202;SDS011;58929;47.490;19.090;2023-08-06T06:43:30;0.50;;;0.32;;
71202;SDS011;58929;47.490;19.090;2023-08-06T06:45:58;0.35;;;0.35;;
71202;SDS011;58929;47.490;19.090;2023-08-06T06:48:25;1.20;;;0.40;;
71202;SDS011;58929;47.490;19.090;2023-08-06T06:50:53;1.27;;;0.25;;
71202;SDS011;58929;47.490;19.090;2023-08-06T06:53:21;0.30;;;0.30;;
71202;SDS011;58929;47.490;19.090;2023-08-06T06:55:53;1.23;;;0.40;;
71202;SDS011;58929;47.490;19.090;2023-08-06T06:58:21;0.30;;;0.30;;
71202;SDS011;58929;47.490;19.090;2023-08-06T07:00:52;0.38;;;0.38;;
71202;SDS011;58929;47.490;19.090;2023-08-06T07:03:20;1.00;;;0.40;;
71202;SDS011;58929;47.490;19.090;2023-08-06T07:05:48;2.03;;;0.32;;
71202;SDS011;58929;47.490;19.090;2023-08-06T07:08:17;0.85;;;0.40;;
71202;SDS011;58929;47.490;19.090;2023-08-06T07:10:44;0.77;;;0.50;;
71202;SDS011;58929;47.490;19.090;2023-08-06T07:13:14;0.50;;;0.35;;
71202;SDS011;58929;47.490;19.090;2023-08-06T07:15:43;0.85;;;0.40;;
71202;SDS011;58929;47.490;19.090;2023-08-06T07:18:12;0.85;;;0.40;;
71202;SDS011;58929;47.490;19.090;2023-08-06T07:20:40;1.65;;;0.50;;
71202;SDS011;58929;47.490;19.090;2023-08-06T07:23:08;0.47;;;0.47;;
71202;SDS011;58929;47.490;19.090;2023-08-06T07:25:36;0.28;;;0.25;;
71202;SDS011;58929;47.490;19.090;2023-08-06T07:28:04;0.40;;;0.38;;
71202;SDS011;58929;47.490;19.090;2023-08-06T07:30:32;0.35;;;0.30;;
71202;SDS011;58929;47.490;19.090;2023-08-06T07:33:00;3.00;;;0.63;;
71202;SDS011;58929;47.490;19.090;2023-08-06T07:35:29;0.20;;;0.20;;
71202;SDS011;58929;47.490;19.090;2023-08-06T07:37:57;3.58;;;0.20;;
71202;SDS011;58929;47.490;19.090;2023-08-06T07:40:25;2.53;;;0.30;;
71202;SDS011;58929;47.490;19.090;2023-08-06T07:42:53;0.80;;;0.20;;
71202;SDS011;58929;47.490;19.090;2023-08-06T07:45:21;1.30;;;0.20;;
71202;SDS011;58929;47.490;19.090;2023-08-06T07:47:49;1.45;;;0.95;;
71202;SDS011;58929;47.490;19.090;2023-08-06T07:50:18;1.80;;;0.38;;
71202;SDS011;58929;47.490;19.090;2023-08-06T07:52:50;0.52;;;0.38;;
71202;SDS011;58929;47.490;19.090;2023-08-06T07:55:20;1.75;;;0.30;;
71202;SDS011;58929;47.490;19.090;2023-08-06T07:57:48;1.08;;;0.32;;
71202;SDS011;58929;47.490;19.090;2023-08-06T08:00:16;0.20;;;0.20;;
71202;SDS011;58929;47.490;19.090;2023-08-06T08:02:44;0.22;;;0.22;;
71202;SDS011;58929;47.490;19.090;2023-08-06T08:05:13;0.20;;;0.20;;
71202;SDS011;58929;47.490;19.090;2023-08-06T08:07:41;0.57;;;0.20;;
71202;SDS011;58929;47.490;19.090;2023-08-06T08:10:12;1.80;;;0.30;;
71202;SDS011;58929;47.490;19.090;2023-08-06T08:12:40;1.40;;;0.82;;
71202;SDS011;58929;47.490;19.090;2023-08-06T08:15:09;0.40;;;0.32;;
71202;SDS011;58929;47.490;19.090;2023-08-06T08:17:37;1.13;;;0.70;;
71202;SDS011;58929;47.490;19.090;2023-08-06T08:20:06;2.83;;;0.40;;
71202;SDS011;58929;47.490;19.090;2023-08-06T08:22:34;0.40;;;0.40;;
71202;SDS011;58929;47.490;19.090;2023-08-06T08:25:02;0.55;;;0.38;;
71202;SDS011;58929;47.490;19.090;2023-08-06T08:27:32;0.20;;;0.20;;
71202;SDS011;58929;47.490;19.090;2023-08-06T08:30:00;0.25;;;0.20;;
71202;SDS011;58929;47.490;19.090;2023-08-06T08:32:28;0.20;;;0.20;;
71202;SDS011;58929;47.490;19.090;2023-08-06T08:34:56;1.23;;;0.38;;
71202;SDS011;58929;47.490;19.090;2023-08-06T08:37:24;0.93;;;0.43;;
71202;SDS011;58929;47.490;19.090;2023-08-06T08:39:52;1.48;;;0.40;;
71202;SDS011;58929;47.490;19.090;2023-08-06T08:42:21;0.65;;;0.20;;
71202;SDS011;58929;47.490;19.090;2023-08-06T08:44:50;1.25;;;0.20;;
71202;SDS011;58929;47.490;19.090;2023-08-06T08:47:19;0.47;;;0.30;;
71202;SDS011;58929;47.490;19.090;2023-08-06T08:49:50;0.40;;;0.40;;
71202;SDS011;58929;47.490;19.090;2023-08-06T08:52:19;0.35;;;0.30;;
71202;SDS011;58929;47.490;19.090;2023-08-06T08:54:48;0.35;;;0.30;;
71202;SDS011;58929;47.490;19.090;2023-08-06T08:57:18;0.35;;;0.20;;
71202;SDS011;58929;47.490;19.090;2023-08-06T08:59:46;4.90;;;0.43;;
71202;SDS011;58929;47.490;19.090;2023-08-06T09:02:16;1.95;;;0.82;;
71202;SDS011;58929;47.490;19.090;2023-08-06T09:04:44;0.95;;;0.40;;
71202;SDS011;58929;47.490;19.090;2023-08-06T09:07:13;2.60;;;0.38;;
71202;SDS011;58929;47.490;19.090;2023-08-06T09:09:42;1.80;;;0.52;;
71202;SDS011;58929;47.490;19.090;2023-08-06T09:12:12;0.93;;;0.52;;
71202;SDS011;58929;47.490;19.090;2023-08-06T09:14:41;1.15;;;0.40;;
71202;SDS011;58929;47.490;19.090;2023-08-06T09:17:10;0.22;;;0.20;;
71202;SDS011;58929;47.490;19.090;2023-08-06T09:19:42;1.27;;;0.40;;
71202;SDS011;58929;47.490;19.090;2023-08-06T09:22:13;0.50;;;0.30;;
71202;SDS011;58929;47.490;19.090;2023-08-06T09:24:42;3.22;;;0.60;;
71202;SDS011;58929;47.490;19.090;2023-08-06T09:27:10;0.60;;;0.35;;
71202;SDS011;58929;47.490;19.090;2023-08-06T09:29:40;2.88;;;0.40;;
71202;SDS011;58929;47.490;19.090;2023-08-06T09:32:08;0.50;;;0.30;;
71202;SDS011;58929;47.490;19.090;2023-08-06T09:34:38;1.95;;;0.40;;
71202;SDS011;58929;47.490;19.090;2023-08-06T09:37:08;1.40;;;0.90;;
71202;SDS011;58929;47.490;19.090;2023-08-06T09:39:37;2.55;;;0.85;;
71202;SDS011;58929;47.490;19.090;2023-08-06T09:42:06;0.73;;;0.28;;
71202;SDS011;58929;47.490;19.090;2023-08-06T09:44:33;0.60;;;0.40;;
71202;SDS011;58929;47.490;19.090;2023-08-06T09:47:02;0.88;;;0.50;;
71202;SDS011;58929;47.490;19.090;2023-08-06T09:49:40;0.93;;;0.50;;
71202;SDS011;58929;47.490;19.090;2023-08-06T09:52:13;2.08;;;0.80;;
71202;SDS011;58929;47.490;19.090;2023-08-06T09:54:43;2.53;;;0.47;;
71202;SDS011;58929;47.490;19.090;2023-08-06T09:57:11;1.60;;;0.50;;
71202;SDS011;58929;47.490;19.090;2023-08-06T09:59:39;0.80;;;0.60;;
71202;SDS011;58929;47.490;19.090;2023-08-06T10:02:12;5.25;;;1.48;;
71202;SDS011;58929;47.490;19.090;2023-08-06T10:04:40;1.33;;;0.77;;
71202;SDS011;58929;47.490;19.090;2023-08-06T10:07:16;2.40;;;1.15;;
71202;SDS011;58929;47.490;19.090;2023-08-06T10:09:45;1.58;;;0.82;;
71202;SDS011;58929;47.490;19.090;2023-08-06T10:12:13;5.32;;;1.33;;
71202;SDS011;58929;47.490;19.090;2023-08-06T10:14:41;1.55;;;0.77;;
71202;SDS011;58929;47.490;19.090;2023-08-06T10:17:10;0.80;;;0.75;;
71202;SDS011;58929;47.490;19.090;2023-08-06T10:19:39;3.65;;;0.85;;
71202;SDS011;58929;47.490;19.090;2023-08-06T10:22:07;1.02;;;0.80;;
71202;SDS011;58929;47.490;19.090;2023-08-06T10:24:46;1.50;;;1.27;;
71202;SDS011;58929;47.490;19.090;2023-08-06T10:27:19;2.28;;;0.90;;
71202;SDS011;58929;47.490;19.090;2023-08-06T10:29:47;2.45;;;0.80;;
71202;SDS011;58929;47.490;19.090;2023-08-06T10:32:15;0.68;;;0.25;;
71202;SDS011;58929;47.490;19.090;2023-08-06T10:34:54;2.55;;;0.50;;
71202;SDS011;58929;47.490;19.090;2023-08-06T10:37:23;2.30;;;0.50;;
71202;SDS011;58929;47.490;19.090;2023-08-06T10:39:53;3.20;;;1.42;;
71202;SDS011;58929;47.490;19.090;2023-08-06T10:42:22;1.00;;;0.40;;
71202;SDS011;58929;47.490;19.090;2023-08-06T10:47:37;0.77;;;0.40;;
71202;SDS011;58929;47.490;19.090;2023-08-06T10:50:11;1.23;;;0.50;;
71202;SDS011;58929;47.490;19.090;2023-08-06T10:52:40;0.95;;;0.32;;
71202;SDS011;58929;47.490;19.090;2023-08-06T10:55:09;1.27;;;0.50;;
71202;SDS011;58929;47.490;19.090;2023-08-06T10:57:37;3.15;;;0.45;;
71202;SDS011;58929;47.490;19.090;2023-08-06T11:00:06;0.90;;;0.50;;
71202;SDS011;58929;47.490;19.090;2023-08-06T11:02:42;0.35;;;0.20;;
71202;SDS011;58929;47.490;19.090;2023-08-06T11:05:11;0.52;;;0.30;;
71202;SDS011;58929;47.490;19.090;2023-08-06T11:07:40;0.60;;;0.57;;
71202;SDS011;58929;47.490;19.090;2023-08-06T11:10:11;0.75;;;0.60;;
71202;SDS011;58929;47.490;19.090;2023-08-06T11:12:40;0.47;;;0.47;;
71202;SDS011;58929;47.490;19.090;2023-08-06T11:15:08;1.02;;;0.50;;
71202;SDS011;58929;47.490;19.090;2023-08-06T11:17:36;0.50;;;0.50;;
71202;SDS011;58929;47.490;19.090;2023-08-06T11:20:07;3.08;;;1.55;;
71202;SDS011;58929;47.490;19.090;2023-08-06T11:22:35;4.30;;;1.35;;
71202;SDS011;58929;47.490;19.090;2023-08-06T11:25:04;0.30;;;0.30;;
71202;SDS011;58929;47.490;19.090;2023-08-06T11:27:33;1.50;;;0.50;;
71202;SDS011;58929;47.490;19.090;2023-08-06T11:30:01;3.05;;;0.60;;
71202;SDS011;58929;47.490;19.090;2023-08-06T11:32:30;1.02;;;0.40;;
71202;SDS011;58929;47.490;19.090;2023-08-06T11:35:08;0.40;;;0.40;;
71202;SDS011;58929;47.490;19.090;2023-08-06T11:37:36;1.63;;;0.50;;
71202;SDS011;58929;47.490;19.090;2023-08-06T11:40:06;1.90;;;0.60;;
71202;SDS011;58929;47.490;19.090;2023-08-06T11:42:37;0.85;;;0.63;;
71202;SDS011;58929;47.490;19.090;2023-08-06T11:45:05;1.88;;;0.60;;
71202;SDS011;58929;47.490;19.090;2023-08-06T11:47:37;0.55;;;0.50;;
71202;SDS011;58929;47.490;19.090;2023-08-06T11:50:06;2.78;;;0.40;;
71202;SDS011;58929;47.490;19.090;2023-08-06T11:52:34;0.63;;;0.63;;
71202;SDS011;58929;47.490;19.090;2023-08-06T11:55:02;0.50;;;0.50;;
71202;SDS011;58929;47.490;19.090;2023-08-06T11:57:33;1.10;;;0.50;;
71202;SDS011;58929;47.490;19.090;2023-08-06T12:00:04;0.68;;;0.50;;
71202;SDS011;58929;47.490;19.090;2023-08-06T12:02:41;0.40;;;0.40;;
71202;SDS011;58929;47.490;19.090;2023-08-06T12:05:10;0.68;;;0.60;;
71202;SDS011;58929;47.490;19.090;2023-08-06T12:07:40;0.60;;;0.60;;
71202;SDS011;58929;47.490;19.090;2023-08-06T12:10:08;3.40;;;0.50;;
71202;SDS011;58929;47.490;19.090;2023-08-06T12:12:36;1.13;;;0.43;;
71202;SDS011;58929;47.490;19.090;2023-08-06T12:15:07;0.52;;;0.50;;
71202;SDS011;58929;47.490;19.090;2023-08-06T12:17:37;1.20;;;0.70;;
71202;SDS011;58929;47.490;19.090;2023-08-06T12:20:06;5.97;;;0.50;;
71202;SDS011;58929;47.490;19.090;2023-08-06T12:22:35;1.38;;;0.60;;
71202;SDS011;58929;47.490;19.090;2023-08-06T12:25:05;1.65;;;0.50;;
71202;SDS011;58929;47.490;19.090;2023-08-06T12:27:35;1.73;;;0.70;;
71202;SDS011;58929;47.490;19.090;2023-08-06T12:30:03;1.90;;;0.43;;
71202;SDS011;58929;47.490;19.090;2023-08-06T12:32:33;0.47;;;0.47;;
71202;SDS011;58929;47.490;19.090;2023-08-06T12:35:01;0.75;;;0.75;;
71202;SDS011;58929;47.490;19.090;2023-08-06T12:37:29;1.10;;;0.60;;
71202;SDS011;58929;47.490;19.090;2023-08-06T12:39:57;0.45;;;0.40;;
71202;SDS011;58929;47.490;19.090;2023-08-06T12:42:45;0.40;;;0.40;;
71202;SDS011;58929;47.490;19.090;2023-08-06T12:45:13;0.95;;;0.60;;
71202;SDS011;58929;47.490;19.090;2023-08-06T12:47:43;1.20;;;0.70;;
71202;SDS011;58929;47.490;19.090;2023-08-06T12:50:12;2.17;;;1.10;;
71202;SDS011;58929;47.490;19.090;2023-08-06T12:52:40;1.88;;;0.85;;
71202;SDS011;58929;47.490;19.090;2023-08-06T12:55:08;1.88;;;1.05;;
71202;SDS011;58929;47.490;19.090;2023-08-06T12:57:36;1.15;;;0.65;;
71202;SDS011;58929;47.490;19.090;2023-08-06T13:00:21;5.78;;;0.93;;
71202;SDS011;58929;47.490;19.090;2023-08-06T13:02:50;1.17;;;0.70;;
71202;SDS011;58929;47.490;19.090;2023-08-06T13:05:19;0.55;;;0.50;;
71202;SDS011;58929;47.490;19.090;2023-08-06T13:07:47;2.95;;;0.90;;
71202;SDS011;58929;47.490;19.090;2023-08-06T13:10:14;1.20;;;1.02;;
71202;SDS011;58929;47.490;19.090;2023-08-06T13:12:42;2.80;;;0.70;;
71202;SDS011;58929;47.490;19.090;2023-08-06T13:15:11;1.10;;;0.75;;
71202;SDS011;58929;47.490;19.090;2023-08-06T13:17:41;1.73;;;0.88;;
71202;SDS011;58929;47.490;19.090;2023-08-06T13:20:10;1.00;;;0.63;;
71202;SDS011;58929;47.490;19.090;2023-08-06T13:22:46;1.77;;;1.13;;
71202;SDS011;58929;47.490;19.090;2023-08-06T13:25:17;0.60;;;0.60;;
71202;SDS011;58929;47.490;19.090;2023-08-06T13:27:45;1.67;;;0.70;;
71202;SDS011;58929;47.490;19.090;2023-08-06T13:30:14;2.05;;;0.70;;
71202;SDS011;58929;47.490;19.090;2023-08-06T13:32:43;0.93;;;0.80;;
71202;SDS011;58929;47.490;19.090;2023-08-06T13:35:12;1.20;;;0.85;;
71202;SDS011;58929;47.490;19.090;2023-08-06T13:37:40;2.08;;;0.70;;
71202;SDS011;58929;47.490;19.090;2023-08-06T13:40:08;2.90;;;1.52;;
71202;SDS011;58929;47.490;19.090;2023-08-06T13:42:36;1.63;;;1.00;;
71202;SDS011;58929;47.490;19.090;2023-08-06T13:45:05;1.38;;;0.73;;
71202;SDS011;58929;47.490;19.090;2023-08-06T13:47:33;1.13;;;1.02;;
71202;SDS011;58929;47.490;19.090;2023-08-06T13:50:01;1.08;;;0.95;;
71202;SDS011;58929;47.490;19.090;2023-08-06T13:52:31;1.77;;;0.95;;
71202;SDS011;58929;47.490;19.090;2023-08-06T13:54:59;1.42;;;1.17;;
71202;SDS011;58929;47.490;19.090;2023-08-06T13:57:27;1.20;;;0.80;;
71202;SDS011;58929;47.490;19.090;2023-08-06T13:59:57;0.98;;;0.98;;
71202;SDS011;58929;47.490;19.090;2023-08-06T14:02:25;4.78;;;1.00;;
71202;SDS011;58929;47.490;19.090;2023-08-06T14:04:53;0.80;;;0.80;;
71202;SDS011;58929;47.490;19.090;2023-08-06T14:07:21;1.42;;;1.08;;
71202;SDS011;58929;47.490;19.090;2023-08-06T14:09:51;1.77;;;1.20;;
71202;SDS011;58929;47.490;19.090;2023-08-06T14:12:19;1.42;;;1.30;;
71202;SDS011;58929;47.490;19.090;2023-08-06T14:14:47;3.85;;;1.58;;
71202;SDS011;58929;47.490;19.090;2023-08-06T14:17:15;1.80;;;1.20;;
71202;SDS011;58929;47.490;19.090;2023-08-06T14:19:43;4.63;;;0.98;;
71202;SDS011;58929;47.490;19.090;2023-08-06T14:22:12;1.20;;;1.00;;
71202;SDS011;58929;47.490;19.090;2023-08-06T14:24:40;1.95;;;1.15;;
71202;SDS011;58929;47.490;19.090;2023-08-06T14:27:10;1.58;;;1.20;;
71202;SDS011;58929;47.490;19.090;2023-08-06T14:29:37;1.38;;;1.10;;
71202;SDS011;58929;47.490;19.090;2023-08-06T14:32:06;1.63;;;1.40;;
71202;SDS011;58929;47.490;19.090;2023-08-06T14:34:34;2.25;;;0.82;;
71202;SDS011;58929;47.490;19.090;2023-08-06T14:37:02;1.75;;;1.10;;
71202;SDS011;58929;47.490;19.090;2023-08-06T14:39:30;6.47;;;1.20;;
71202;SDS011;58929;47.490;19.090;2023-08-06T14:41:59;3.42;;;1.20;;
71202;SDS011;58929;47.490;19.090;2023-08-06T14:44:28;2.58;;;1.20;;
71202;SDS011;58929;47.490;19.090;2023-08-06T14:46:58;3.30;;;1.80;;